Latest Weather Observations for Argyle

IDW60801

Issued at 10:03 am WST Friday 14 May 2021 (issued every 10 minutes, with the page automatically refreshed every 10 minutes)

About weather observations | Map of weather stations | Latest weather observations for WA | Other Formats
Station Details ID: 002064 Name: ARGYLE AERODROME Lat: -16.64 Lon: 128.45 Height: 164.0 m
Data from the previous 72 hours. | See also: Recent months at Argyle
Date/Time
WST
Temp
°C
App
Temp
°C
Dew
Point
°C
Rel
Hum
%
Delta-T
°C
Wind Press
QNH
hPa
Press
MSL
hPa
Rain since
9am
mm
Dir  Spd
km/h
Gust
km/h
Spd
kts
Gust
kts
14/10:00am 26.6 21.9 1.1 19 12.2 ESE 15 22 8 12 1016.6 1015.8 0.0
14/09:30am 25.6 19.9 -0.5 18 12.0 ESE 19 26 10 14 1017.0 1016.2 0.0
14/09:00am 25.3 19.7 0.0 19 11.7 E 19 26 10 14 1017.2 1016.4 0.0
14/08:30am 24.3 18.5 -0.1 20 11.2 SE 20 28 11 15 1017.1 1016.3 0.0
14/08:00am 23.3 18.1 -0.2 21 10.7 ESE 17 24 9 13 1016.9 1016.1 0.0
14/07:30am 22.3 17.9 0.2 23 10.1 ESE 13 20 7 11 1016.8 1016.0 0.0
14/07:00am 20.9 17.5 1.7 28 8.9 ESE 9 13 5 7 1016.7 1015.9 0.0
14/06:30am 18.4 14.7 2.3 34 7.4 E 11 11 6 6 1016.4 1015.6 0.0
14/06:00am 16.3 12.6 2.3 39 6.3 ESE 11 13 6 7 1015.9 1015.0 0.0
14/05:30am 15.0 12.3 2.5 43 5.6 ENE 6 7 3 4 1015.7 1014.8 0.0
14/05:00am 15.7 12.3 1.8 39 6.2 ESE 9 11 5 6 1015.3 1014.4 0.0
14/04:30am 16.6 12.8 1.9 37 6.6 ESE 11 15 6 8 1015.1 1014.2 0.0
14/04:00am 17.4 13.3 2.2 36 6.9 ESE 13 15 7 8 1014.7 1013.8 0.0
14/03:30am 17.1 13.9 3.1 39 6.5 ESE 9 13 5 7 1014.5 1013.6 0.0
14/03:00am 17.6 14.0 3.1 38 6.7 ENE 11 13 6 7 1014.4 1013.5 0.0
14/02:30am 16.8 13.6 3.1 40 6.3 E 9 11 5 6 1014.3 1013.4 0.0
14/02:00am 18.0 15.1 2.7 36 7.1 NE 7 9 4 5 1014.4 1013.5 0.0
14/01:30am 20.3 18.4 3.1 32 8.2 SE 2 7 1 4 1014.4 1013.5 0.0
14/01:00am 20.6 17.9 2.9 31 8.4 SE 6 9 3 5 1014.6 1013.7 0.0
14/12:30am 22.2 18.2 2.8 28 9.3 ESE 13 17 7 9 1014.5 1013.6 0.0
14/12:00am 22.6 18.3 3.2 28 9.4 SE 15 19 8 10 1014.6 1013.7 0.0
 
Date/Time
WST
Temp
°C
App
Temp
°C
Dew
Point
°C
Rel
Hum
%
Delta-T
°C
Wind Press
QNH
hPa
Press
MSL
hPa
Rain since
9am
mm
Dir  Spd
km/h
Gust
km/h
Spd
kts
Gust
kts
13/11:30pm 21.2 17.3 3.4 31 8.6 ESE 13 17 7 9 1014.6 1013.7 0.0
13/11:00pm 23.3 19.0 3.3 27 9.7 ESE 15 20 8 11 1014.5 1013.6 0.0
13/10:30pm 23.2 18.9 3.2 27 9.7 ESE 15 20 8 11 1014.5 1013.6 0.0
13/10:00pm 25.1 20.1 3.7 25 10.6 SE 19 24 10 13 1014.4 1013.5 0.0
13/09:30pm 25.3 20.2 3.3 24 10.9 SE 19 26 10 14 1014.4 1013.5 0.0
13/09:00pm 25.8 21.2 3.7 24 11.0 SE 17 26 9 14 1014.3 1013.4 0.0
13/08:30pm 26.0 22.1 3.3 23 11.3 SE 13 20 7 11 1014.5 1013.6 0.0
13/08:00pm 26.2 22.8 4.1 24 11.1 SE 11 15 6 8 1014.3 1013.4 0.0
13/07:30pm 26.2 23.2 4.1 24 11.1 SE 9 17 5 9 1014.0 1013.1 0.0
13/07:00pm 26.1 23.1 4.0 24 11.1 SSE 9 13 5 7 1013.7 1012.8 0.0
13/06:30pm 26.7 23.7 3.9 23 11.5 SSE 9 13 5 7 1013.3 1012.4 0.0
13/06:00pm 26.9 23.5 4.0 23 11.6 SSE 11 13 6 7 1013.0 1012.1 0.0
13/05:30pm 27.8 24.8 4.2 22 12.0 SSE 9 13 5 7 1012.7 1011.8 0.0
13/05:00pm 28.8 25.7 3.6 20 12.8 SSE 9 17 5 9 1012.6 1011.7 0.0
13/04:30pm 30.1 25.9 4.0 19 13.5 SSE 15 20 8 11 1012.5 1011.6 0.0
13/04:00pm 30.8 26.6 3.8 18 13.9 SE 15 24 8 13 1012.3 1011.4 0.0
13/03:30pm 31.2 26.7 4.1 18 14.1 SE 17 28 9 15 1011.8 1011.0 0.0
13/03:00pm 31.5 26.9 3.5 17 14.4 SE 17 22 9 12 1011.7 1010.9 0.0
13/02:30pm 31.5 27.6 3.5 17 14.4 SE 13 20 7 11 1011.9 1011.1 0.0
13/02:00pm 31.9 27.7 3.8 17 14.6 ESE 15 26 8 14 1012.2 1011.3 0.0
13/01:30pm 31.6 27.5 4.4 18 14.2 ENE 15 24 8 13 1012.5 1011.6 0.0
13/01:00pm 31.1 26.1 4.8 19 13.8 E 20 28 11 15 1012.8 1011.9 0.0
13/12:30pm 31.0 26.1 3.9 18 14.0 SE 19 32 10 17 1013.3 1012.4 0.0
13/12:00pm 30.7 26.6 4.4 19 13.7 ESE 15 24 8 13 1013.8 1012.9 0.0
13/11:30am 30.5 25.6 4.3 19 13.6 ESE 19 28 10 15 1014.4 1013.5 0.0
13/11:00am 29.9 25.8 4.5 20 13.2 SE 15 22 8 12 1015.0 1014.1 0.0
13/10:30am 29.5 25.3 5.6 22 12.6 E 17 26 9 14 1015.5 1014.6 0.0
13/10:00am 29.0 24.4 5.8 23 12.2 E 19 26 10 14 1016.0 1015.2 0.0
13/09:30am 27.7 23.5 5.9 25 11.4 E 17 24 9 13 1016.5 1015.7 0.0
13/09:00am 27.7 24.5 7.0 27 11.1 E 13 20 7 11 1016.9 1016.1 0.0
13/08:30am 26.1 22.7 5.7 27 10.6 E 13 20 7 11 1017.0 1016.2 0.0
13/08:00am 25.0 21.7 6.2 30 9.8 ESE 13 17 7 9 1016.9 1016.1 0.0
13/07:30am 24.2 21.8 6.9 33 9.1 ESE 9 13 5 7 1016.8 1016.0 0.0
13/07:00am 22.9 21.1 7.8 38 8.0 E 7 11 4 6 1016.6 1015.8 0.0
13/06:30am 21.7 20.9 8.2 42 7.1 SSE 2 15 1 8 1016.4 1015.6 0.0
13/06:00am 18.8 18.3 7.9 49 5.6 CALM 0 0 0 0 1016.1 1015.3 0.0
13/05:30am 17.9 16.4 7.0 49 5.5 E 4 9 2 5 1015.9 1015.0 0.0
13/05:00am 19.7 17.4 7.4 45 6.3 SE 9 11 5 6 1015.5 1014.6 0.0
13/04:30am 19.6 17.7 7.7 46 6.1 ESE 7 9 4 5 1015.3 1014.4 0.0
13/04:00am 19.7 18.0 7.4 45 6.3 W 6 7 3 4 1014.9 1014.0 0.0
13/03:30am 19.1 17.7 7.2 46 6.1 S 4 9 2 5 1014.6 1013.7 0.0
13/03:00am 19.5 18.8 6.9 44 6.4 CALM 0 6 0 3 1014.6 1013.7 0.0
13/02:30am 20.9 18.9 6.4 39 7.4 ENE 6 9 3 5 1014.6 1013.7 0.0
13/02:00am 21.2 19.4 7.1 40 7.3 ENE 6 7 3 4 1014.5 1013.6 0.0
13/01:30am 20.8 18.7 6.7 40 7.2 ENE 7 9 4 5 1014.4 1013.5 0.0
13/01:00am 20.7 17.8 6.6 40 7.2 E 11 13 6 7 1014.5 1013.6 0.0
13/12:30am 21.5 18.6 6.6 38 7.6 E 11 13 6 7 1014.6 1013.7 0.0
13/12:00am 22.0 18.7 6.3 36 8.0 E 13 15 7 8 1014.9 1014.0 0.0
 
Date/Time
WST
Temp
°C
App
Temp
°C
Dew
Point
°C
Rel
Hum
%
Delta-T
°C
Wind Press
QNH
hPa
Press
MSL
hPa
Rain since
9am
mm
Dir  Spd
km/h
Gust
km/h
Spd
kts
Gust
kts
12/11:30pm 22.3 19.3 6.1 35 8.3 E 11 13 6 7 1015.0 1014.1 0.0
12/11:00pm 23.9 20.5 5.8 31 9.3 E 13 19 7 10 1015.1 1014.2 0.0
12/10:30pm 25.6 21.4 5.8 28 10.2 ESE 17 20 9 11 1015.2 1014.3 0.0
12/10:00pm 26.4 21.8 5.4 26 10.8 SE 19 26 10 14 1015.2 1014.3 0.0
12/09:30pm 27.3 22.7 5.6 25 11.3 SE 19 26 10 14 1015.3 1014.4 0.0
12/09:00pm 27.3 23.5 5.6 25 11.3 SE 15 19 8 10 1015.3 1014.4 0.0
12/08:30pm 26.5 24.0 6.5 28 10.5 SSE 9 15 5 8 1015.2 1014.3 0.0
12/08:00pm 26.9 24.3 6.3 27 10.8 SSE 9 15 5 8 1015.0 1014.1 0.0
12/07:30pm 26.6 24.4 6.1 27 10.7 SSE 7 11 4 6 1014.7 1013.8 0.0
12/07:00pm 27.0 24.4 5.9 26 11.0 SE 9 11 5 6 1014.5 1013.6 0.0
12/06:30pm 27.6 25.4 6.4 26 11.2 SE 7 11 4 6 1014.1 1013.2 0.0
12/06:00pm 28.1 25.9 6.2 25 11.6 SSE 7 11 4 6 1013.8 1012.9 0.0
12/05:30pm 28.9 26.3 6.3 24 12.0 SSE 9 11 5 6 1013.5 1012.6 0.0
12/05:00pm 30.0 27.4 6.0 22 12.8 SSE 9 13 5 7 1013.3 1012.4 0.0
12/04:30pm 31.5 27.5 5.1 19 14.0 SSE 15 20 8 11 1013.1 1012.2 0.0
12/04:00pm 32.1 28.5 4.8 18 14.4 SSE 13 28 7 15 1012.9 1012.0 0.0
12/03:30pm 32.8 29.5 6.2 19 14.4 SSE 13 17 7 9 1012.7 1011.8 0.0
12/03:00pm 32.7 28.4 5.3 18 14.7 SE 17 28 9 15 1012.7 1011.8 0.0
12/02:30pm 33.1 29.4 6.4 19 14.6 E 15 22 8 12 1012.7 1011.8 0.0
12/02:00pm 32.8 29.1 6.2 19 14.4 E 15 26 8 14 1012.9 1012.0 0.0
12/01:30pm 32.6 29.2 6.0 19 14.4 SE 13 20 7 11 1013.4 1012.5 0.0
12/01:00pm 32.7 29.1 6.8 20 14.2 SE 15 26 8 14 1013.7 1012.8 0.0
12/12:30pm 31.8 27.7 6.1 20 13.9 E 17 24 9 13 1014.3 1013.4 0.0
12/12:00pm 31.6 28.9 7.3 22 13.3 E 11 20 6 11 1014.8 1013.9 0.0
12/11:30am 30.8 27.5 6.6 22 13.1 ESE 13 28 7 15 1015.4 1014.5 0.0
12/11:00am 30.4 27.0 7.6 24 12.5 E 15 22 8 12 1015.9 1015.0 0.0
12/10:30am 30.0 27.0 7.8 25 12.2 ENE 13 20 7 11 1016.6 1015.8 0.0
12/10:00am 29.2 25.7 7.2 25 11.9 E 15 22 8 12 1017.1 1016.3 0.0
12/09:30am 29.1 25.5 8.2 27 11.5 ENE 17 26 9 14 1017.5 1016.7 0.0
12/09:00am 28.1 24.5 6.8 26 11.4 E 15 24 8 13 1017.8 1017.0 0.0
12/08:30am 27.6 24.4 6.9 27 11.1 NE 13 20 7 11 1017.7 1016.9 0.0
12/08:00am 26.7 24.3 7.2 29 10.4 SE 9 13 5 7 1017.7 1016.9 0.0
12/07:30am 26.2 24.2 6.3 28 10.4 SW 6 7 3 4 1017.5 1016.7 0.0
12/07:00am 25.6 25.1 7.7 32 9.6 CALM 0 0 0 0 1017.3 1016.5 0.0
12/06:30am 22.5 20.9 8.2 40 7.6 SW 6 7 3 4 1017.0 1016.2 0.0
12/06:00am 21.0 19.2 8.0 43 6.8 WSW 7 7 4 4 1016.7 1015.9 0.0
12/05:30am 20.7 19.0 7.7 43 6.8 WNW 6 9 3 5 1016.4 1015.6 0.0
12/05:00am 20.9 19.1 7.2 41 7.1 WSW 6 7 3 4 1016.0 1015.2 0.0
12/04:30am 22.0 19.9 6.7 37 7.9 SW 7 9 4 5 1015.7 1014.8 0.0
12/04:00am 21.9 20.0 6.6 37 7.8 WSW 6 7 3 4 1015.6 1014.7 0.0
12/03:30am 22.4 19.8 6.2 35 8.3 SW 9 11 5 6 1015.4 1014.5 0.0
12/03:00am 21.5 18.9 6.2 37 7.8 WNW 9 11 5 6 1015.3 1014.4 0.0
12/02:30am 22.3 19.7 6.1 35 8.3 NNW 9 11 5 6 1015.0 1014.1 0.0
12/02:00am 22.0 19.7 5.8 35 8.2 NW 7 7 4 4 1014.7 1013.8 0.0
12/01:30am 21.4 19.7 6.1 37 7.8 N 4 7 2 4 1014.6 1013.7 0.0
12/01:00am 21.8 19.1 5.7 35 8.1 E 9 13 5 7 1014.6 1013.7 0.0
12/12:30am 22.4 18.9 5.4 33 8.6 E 13 15 7 8 1014.5 1013.6 0.0
12/12:00am 23.0 19.5 5.4 32 8.9 ESE 13 15 7 8 1014.6 1013.7 0.0
 
Date/Time
WST
Temp
°C
App
Temp
°C
Dew
Point
°C
Rel
Hum
%
Delta-T
°C
Wind Press
QNH
hPa
Press
MSL
hPa
Rain since
9am
mm
Dir  Spd
km/h
Gust
km/h
Spd
kts
Gust
kts
11/11:30pm 23.7 20.2 5.6 31 9.2 E 13 15 7 8 1014.7 1013.8 0.0
11/11:00pm 24.1 21.0 5.5 30 9.5 ESE 11 15 6 8 1015.0 1014.1 0.0
11/10:30pm 24.9 21.8 5.7 29 9.9 ESE 11 15 6 8 1015.1 1014.2 0.0
11/10:00pm 24.2 21.2 6.0 31 9.4 E 11 13 6 7 1015.1 1014.2 0.0
11/09:30pm 24.7 21.7 6.0 30 9.7 ENE 11 13 6 7 1015.0 1014.1 0.0
11/09:00pm 25.3 22.7 6.0 29 10.0 ENE 9 13 5 7 1015.0 1014.1 0.0
11/08:30pm 25.8 22.8 5.9 28 10.3 E 11 11 6 6 1014.9 1014.0 0.0
11/08:00pm 26.0 23.4 6.1 28 10.4 E 9 11 5 6 1014.8 1013.9 0.0
11/07:30pm 26.0 23.3 5.6 27 10.5 E 9 11 5 6 1014.6 1013.7 0.0
11/07:00pm 26.7 24.0 5.6 26 11.0 E 9 11 5 6 1014.3 1013.4 0.0
11/06:30pm 27.4 24.7 5.6 25 11.4 E 9 11 5 6 1014.0 1013.1 0.0
11/06:00pm 28.3 25.6 5.8 24 11.8 ESE 9 9 5 5 1013.5 1012.6 0.0
11/05:30pm 29.4 27.2 6.1 23 12.4 ESE 7 9 4 5 1013.3 1012.4 0.0
11/05:00pm 30.7 28.3 5.2 20 13.5 E 7 11 4 6 1013.0 1012.1 0.0
11/04:30pm 32.4 29.2 5.1 18 14.5 E 11 17 6 9 1012.6 1011.7 0.0
11/04:00pm 33.3 29.7 5.0 17 15.1 E 13 19 7 10 1012.3 1011.4 0.0
11/03:30pm 33.6 30.0 5.2 17 15.2 ENE 13 20 7 11 1012.1 1011.2 0.0
11/03:00pm 34.1 29.7 4.7 16 15.7 ESE 17 24 9 13 1012.1 1011.2 0.0
11/02:30pm 34.2 30.0 5.7 17 15.5 ENE 17 24 9 13 1012.1 1011.2 0.0
11/02:00pm 34.1 29.5 5.6 17 15.4 ENE 19 26 10 14 1012.5 1011.6 0.0
11/01:30pm 33.8 29.4 4.5 16 15.6 ENE 17 28 9 15 1012.9 1012.0 0.0
11/01:00pm 34.0 29.8 5.5 17 15.4 ENE 17 28 9 15 1013.2 1012.3 0.0
11/12:30pm 34.3 30.1 5.8 17 15.5 E 17 28 9 15 1013.7 1012.8 0.0
11/12:00pm 33.8 29.7 6.2 18 15.1 E 17 30 9 16 1014.4 1013.5 0.0
11/11:30am 32.7 28.2 6.1 19 14.4 E 19 30 10 16 1014.8 1013.9 0.0
11/11:00am 32.4 28.6 5.8 19 14.3 E 15 26 8 14 1015.3 1014.4 0.0
11/10:30am 31.8 28.2 6.8 21 13.6 ESE 15 22 8 12 1016.0 1015.2 0.0

Other formats

Comma delimited format used in spreadsheet applications
http://www.bom.gov.au/fwo/IDW60801/IDW60801.94217.axf

JavaScript Object Notation format (JSON) in row-major order
http://www.bom.gov.au/fwo/IDW60801/IDW60801.94217.json

Data quality

Most of these data are generated automatically and are frequently updated. Quality checks on data are not normally performed. It is possible for incorrect values to appear. Refer to information at About Latest Weather Observations and please check the disclaimer before using these data.